Time;durP1;ratioP1;P1;durP2;ratioP2;P2;SDS_P1;SDS_P2;PMS_P1;PMS_P2;Temp;Humidity;BMP_temperature;BMP_pressure;BME280_temperature;BME280_humidity;BME280_pressure;Samples;Min_cycle;Max_cycle;Signal;HPM_P1;HPM_P2
2022/01/25 00:10:01;;;;;;;28.40;13.63;;;;;;;;;;4990021;28;20397;-68
2022/01/25 00:33:43;;;;;;;27.17;13.30;;;;;;;;;;4988332;28;20033;-67
2022/01/25 00:36:10;;;;;;;28.48;13.85;;;;;;;;;;4989514;28;20030;-66
2022/01/25 00:38:37;;;;;;;23.65;12.77;;;;;;;;;;4998235;28;20379;-68
2022/01/25 00:41:03;;;;;;;27.25;13.00;;;;;;;;;;4993002;28;20026;-67
2022/01/25 00:43:30;;;;;;;23.95;13.82;;;;;;;;;;4996032;28;20038;-67
2022/01/25 00:46:00;;;;;;;26.17;13.13;;;;;;;;;;4995336;28;20026;-67
2022/01/25 00:48:48;;;;;;;28.38;14.02;;;;;;;;;;5001745;28;20032;-68
2022/01/25 00:53:59;;;;;;;26.85;15.15;;;;;;;;;;4979087;28;20065;-68
2022/01/25 00:56:27;;;;;;;26.25;13.30;;;;;;;;;;4982529;28;20040;-67
2022/01/25 00:58:53;;;;;;;34.92;16.85;;;;;;;;;;4977957;28;20085;-68
2022/01/25 01:01:20;;;;;;;27.00;15.02;;;;;;;;;;4980437;28;20433;-67
2022/01/25 01:03:47;;;;;;;25.60;13.15;;;;;;;;;;5002549;28;20027;-68
2022/01/25 01:06:14;;;;;;;21.17;11.60;;;;;;;;;;4982798;28;20053;-67
2022/01/25 01:08:40;;;;;;;22.35;12.38;;;;;;;;;;4989883;28;20093;-67
2022/01/25 01:11:10;;;;;;;23.23;11.95;;;;;;;;;;4974479;28;20022;-68
2022/01/25 01:30:17;;;;;;;23.92;11.75;;;;;;;;;;4990711;28;20041;-68
2022/01/25 01:48:07;;;;;;;25.95;10.65;;;;;;;;;;5002941;28;20073;-67
2022/01/25 01:50:36;;;;;;;21.38;11.10;;;;;;;;;;4993781;28;20504;-68
2022/01/25 01:53:03;;;;;;;22.63;10.75;;;;;;;;;;4998714;28;20030;-68
2022/01/25 01:55:30;;;;;;;21.85;10.73;;;;;;;;;;4990297;28;20080;-68
2022/01/25 01:57:57;;;;;;;25.02;11.82;;;;;;;;;;4993323;28;20400;-67
2022/01/25 02:00:26;;;;;;;22.55;10.75;;;;;;;;;;4987390;28;20509;-68
2022/01/25 02:02:53;;;;;;;19.30;10.63;;;;;;;;;;4998483;28;20477;-67
2022/01/25 02:05:19;;;;;;;22.48;11.57;;;;;;;;;;4998738;28;20038;-66
2022/01/25 02:07:45;;;;;;;23.27;10.90;;;;;;;;;;4984499;28;20034;-66
2022/01/25 02:10:11;;;;;;;18.92;10.30;;;;;;;;;;4991274;28;21244;-68
2022/01/25 02:12:38;;;;;;;21.27;10.98;;;;;;;;;;4992761;28;20069;-67
2022/01/25 02:15:04;;;;;;;19.33;11.05;;;;;;;;;;4990453;28;20026;-67
2022/01/25 02:22:58;;;;;;;19.02;9.73;;;;;;;;;;4991206;28;20112;-68
2022/01/25 02:25:24;;;;;;;23.60;11.55;;;;;;;;;;4990821;28;20057;-68
2022/01/25 02:27:50;;;;;;;18.95;10.90;;;;;;;;;;4983671;28;20030;-67
2022/01/25 02:30:16;;;;;;;21.42;11.48;;;;;;;;;;4990033;28;20034;-68
2022/01/25 02:32:42;;;;;;;26.10;11.65;;;;;;;;;;4987427;28;20026;-68
2022/01/25 02:35:08;;;;;;;17.75;10.43;;;;;;;;;;4991065;28;20172;-67
2022/01/25 02:37:35;;;;;;;20.75;11.10;;;;;;;;;;4991345;28;20046;-68
2022/01/25 02:40:01;;;;;;;18.67;10.65;;;;;;;;;;4994130;28;20037;-68
2022/01/25 02:42:27;;;;;;;20.58;10.93;;;;;;;;;;4982979;28;20022;-68
2022/01/25 02:44:53;;;;;;;19.30;10.63;;;;;;;;;;4988817;28;20034;-67
2022/01/25 02:50:05;;;;;;;19.58;11.07;;;;;;;;;;4989954;28;20049;-68
2022/01/25 02:52:31;;;;;;;20.92;10.18;;;;;;;;;;4991328;28;20501;-67
2022/01/25 02:54:57;;;;;;;18.38;9.98;;;;;;;;;;4989599;28;20029;-67
2022/01/25 02:57:24;;;;;;;16.20;10.10;;;;;;;;;;4995951;28;20122;-67
2022/01/25 02:59:50;;;;;;;20.13;10.68;;;;;;;;;;4987662;28;20145;-68
2022/01/25 03:02:16;;;;;;;19.33;9.43;;;;;;;;;;4991887;28;20026;-67
2022/01/25 03:04:42;;;;;;;22.55;9.95;;;;;;;;;;4993057;28;20033;-67
2022/01/25 03:07:09;;;;;;;18.42;9.80;;;;;;;;;;4991602;28;20081;-68
2022/01/25 03:09:35;;;;;;;18.27;9.63;;;;;;;;;;4985568;28;20081;-68
2022/01/25 03:12:04;;;;;;;19.77;10.82;;;;;;;;;;4990947;28;20385;-67
2022/01/25 03:14:33;;;;;;;19.95;9.13;;;;;;;;;;4990532;28;20038;-68
2022/01/25 03:22:03;;;;;;;15.73;9.52;;;;;;;;;;4997759;28;20057;-67
2022/01/25 03:24:29;;;;;;;18.27;9.90;;;;;;;;;;4994536;28;20037;-67
2022/01/25 03:26:56;;;;;;;21.48;10.10;;;;;;;;;;4991986;28;20073;-67
2022/01/25 03:29:22;;;;;;;22.95;10.00;;;;;;;;;;4993162;28;20035;-67
2022/01/25 03:31:48;;;;;;;18.08;10.40;;;;;;;;;;4991126;28;20038;-67
2022/01/25 03:34:14;;;;;;;18.13;11.20;;;;;;;;;;4990156;28;20026;-67
2022/01/25 03:36:41;;;;;;;16.58;9.25;;;;;;;;;;4991027;28;20038;-68
2022/01/25 03:39:08;;;;;;;19.45;10.63;;;;;;;;;;4988001;28;20014;-68
2022/01/25 03:41:34;;;;;;;16.60;9.95;;;;;;;;;;4990451;28;20053;-66
2022/01/25 03:44:00;;;;;;;19.77;10.23;;;;;;;;;;4987587;28;20125;-67
2022/01/25 03:51:49;;;;;;;14.32;9.05;;;;;;;;;;4997222;28;20040;-67
2022/01/25 03:54:16;;;;;;;20.60;10.15;;;;;;;;;;4990105;28;20515;-68
2022/01/25 03:56:42;;;;;;;18.90;9.82;;;;;;;;;;4983017;28;20030;-67
2022/01/25 03:59:08;;;;;;;16.75;9.80;;;;;;;;;;4990118;28;20022;-68
2022/01/25 04:01:35;;;;;;;18.50;9.80;;;;;;;;;;4990522;28;20030;-69
2022/01/25 04:04:05;;;;;;;18.90;9.07;;;;;;;;;;4990450;28;20031;-67
2022/01/25 04:06:33;;;;;;;18.15;9.35;;;;;;;;;;4989493;28;20050;-66
2022/01/25 04:09:00;;;;;;;19.08;10.38;;;;;;;;;;4990623;28;20026;-68
2022/01/25 04:11:26;;;;;;;19.05;9.43;;;;;;;;;;4984603;28;20101;-67
2022/01/25 04:13:55;;;;;;;18.75;9.35;;;;;;;;;;4988848;28;20076;-67
2022/01/25 04:16:26;;;;;;;41.20;16.75;;;;;;;;;;4990703;28;20756;-68
2022/01/25 04:24:38;;;;;;;23.75;11.10;;;;;;;;;;4991127;28;20038;-67
2022/01/25 04:27:01;;;;;;;17.27;9.48;;;;;;;;;;4992287;28;20096;-68
2022/01/25 04:29:27;;;;;;;18.95;9.60;;;;;;;;;;4987653;28;20452;-67
2022/01/25 04:31:54;;;;;;;16.08;9.40;;;;;;;;;;4989342;28;20452;-68
2022/01/25 04:53:23;;;;;;;18.90;9.45;;;;;;;;;;4995211;28;20030;-68
2022/01/25 04:58:22;;;;;;;14.60;8.48;;;;;;;;;;4989584;28;20529;-67
2022/01/25 05:00:49;;;;;;;19.05;9.85;;;;;;;;;;4989321;28;20029;-67
2022/01/25 05:03:22;;;;;;;16.23;9.43;;;;;;;;;;4993961;28;20030;-67
2022/01/25 05:06:05;;;;;;;16.05;8.95;;;;;;;;;;4992834;28;20022;-67
2022/01/25 05:08:45;;;;;;;16.70;9.15;;;;;;;;;;4987798;28;20173;-67
2022/01/25 05:11:21;;;;;;;16.00;8.10;;;;;;;;;;4996292;28;20428;-69
2022/01/25 05:14:11;;;;;;;15.65;8.70;;;;;;;;;;4993648;28;20053;-68
2022/01/25 05:16:48;;;;;;;13.38;7.93;;;;;;;;;;4993334;28;20488;-67
2022/01/25 05:24:25;;;;;;;15.10;8.02;;;;;;;;;;4994128;28;20547;-68
2022/01/25 05:26:54;;;;;;;16.70;8.38;;;;;;;;;;5001526;28;20108;-66
2022/01/25 05:29:20;;;;;;;13.93;8.10;;;;;;;;;;4993091;28;20113;-67
2022/01/25 05:31:47;;;;;;;15.48;7.57;;;;;;;;;;4991554;28;20073;-67
2022/01/25 05:34:13;;;;;;;13.18;7.90;;;;;;;;;;4990172;28;20022;-67
2022/01/25 05:36:39;;;;;;;16.27;7.93;;;;;;;;;;4998839;28;20029;-67
2022/01/25 05:39:31;;;;;;;13.85;7.32;;;;;;;;;;4992187;28;20025;-68
2022/01/25 05:43:58;;;;;;;14.85;7.45;;;;;;;;;;4990829;28;20026;-67
2022/01/25 05:45:10;;;;;;;16.08;8.77;;;;;;;;;;4997493;28;20089;-69
2022/01/25 05:47:38;;;;;;;16.98;9.05;;;;;;;;;;4999779;28;20077;-67
2022/01/25 05:50:04;;;;;;;15.23;7.85;;;;;;;;;;4983139;28;20022;-68
2022/01/25 05:52:30;;;;;;;14.48;7.65;;;;;;;;;;4994802;28;20395;-68
2022/01/25 05:54:57;;;;;;;16.50;8.60;;;;;;;;;;4995749;28;20085;-67
2022/01/25 05:57:23;;;;;;;15.45;8.30;;;;;;;;;;4996004;28;20090;-69
2022/01/25 05:59:50;;;;;;;15.15;8.20;;;;;;;;;;4990357;28;20094;-67
2022/01/25 06:02:19;;;;;;;15.55;8.30;;;;;;;;;;4985025;28;20490;-67
2022/01/25 06:04:48;;;;;;;16.75;8.40;;;;;;;;;;4991952;28;20038;-68
2022/01/25 06:07:14;;;;;;;15.27;8.90;;;;;;;;;;5005547;28;20057;-68
2022/01/25 06:09:41;;;;;;;16.40;9.38;;;;;;;;;;5004797;28;20034;-69
2022/01/25 06:12:08;;;;;;;16.60;7.80;;;;;;;;;;4993563;28;20014;-68
2022/01/25 06:14:34;;;;;;;16.17;7.90;;;;;;;;;;4994375;28;20019;-68
2022/01/25 06:17:00;;;;;;;13.77;7.50;;;;;;;;;;4999531;28;20037;-68
2022/01/25 06:19:26;;;;;;;13.88;7.95;;;;;;;;;;4999296;28;20424;-68
2022/01/25 06:21:52;;;;;;;14.13;8.27;;;;;;;;;;4990946;28;20041;-67
2022/01/25 06:24:18;;;;;;;20.05;9.02;;;;;;;;;;4991248;28;20488;-68
2022/01/25 06:26:44;;;;;;;13.63;7.43;;;;;;;;;;4988890;28;20034;-67
2022/01/25 06:29:11;;;;;;;15.95;8.70;;;;;;;;;;5004500;28;20069;-67
2022/01/25 06:31:37;;;;;;;18.75;9.55;;;;;;;;;;4998989;28;20025;-68
2022/01/25 06:34:03;;;;;;;18.13;10.05;;;;;;;;;;4998201;28;20070;-69
2022/01/25 06:36:30;;;;;;;17.65;8.93;;;;;;;;;;4978730;28;20069;-69
2022/01/25 06:38:56;;;;;;;17.55;9.27;;;;;;;;;;4993161;28;20097;-68
2022/01/25 06:41:22;;;;;;;15.73;8.35;;;;;;;;;;4990611;28;20030;-67
2022/01/25 06:43:48;;;;;;;17.15;9.40;;;;;;;;;;4991097;28;20030;-67
2022/01/25 06:46:14;;;;;;;15.02;8.90;;;;;;;;;;4998365;28;20026;-69
2022/01/25 06:48:40;;;;;;;16.05;9.27;;;;;;;;;;4985234;28;21507;-67
2022/01/25 06:51:06;;;;;;;16.27;9.07;;;;;;;;;;4998942;28;20022;-67
2022/01/25 06:53:32;;;;;;;18.23;8.98;;;;;;;;;;4991353;28;20018;-68
2022/01/25 06:55:58;;;;;;;15.45;9.52;;;;;;;;;;4997014;28;20026;-68
2022/01/25 06:58:25;;;;;;;18.23;9.25;;;;;;;;;;4985759;28;20432;-68
2022/01/25 07:00:51;;;;;;;17.08;9.23;;;;;;;;;;4995650;28;20072;-67
2022/01/25 07:03:17;;;;;;;16.00;9.15;;;;;;;;;;4985431;28;20607;-67
2022/01/25 07:05:43;;;;;;;19.92;8.98;;;;;;;;;;4988976;28;20034;-68
2022/01/25 07:08:09;;;;;;;21.38;9.32;;;;;;;;;;4992674;28;20057;-68
2022/01/25 07:10:35;;;;;;;15.50;8.57;;;;;;;;;;4990411;28;20037;-68
2022/01/25 07:13:01;;;;;;;15.00;8.93;;;;;;;;;;4989186;28;20037;-68
2022/01/25 07:15:27;;;;;;;17.67;9.85;;;;;;;;;;4993149;28;20032;-67
2022/01/25 07:17:53;;;;;;;17.33;9.02;;;;;;;;;;4989660;28;20033;-67
2022/01/25 07:20:20;;;;;;;13.73;8.73;;;;;;;;;;4996092;28;20042;-66
2022/01/25 07:22:46;;;;;;;18.58;9.18;;;;;;;;;;4996100;28;20042;-66
2022/01/25 07:25:12;;;;;;;18.90;9.40;;;;;;;;;;4998690;28;20044;-66
2022/01/25 07:27:39;;;;;;;16.35;10.27;;;;;;;;;;4989295;28;20048;-65
2022/01/25 07:30:07;;;;;;;16.50;9.15;;;;;;;;;;4999011;28;20030;-67
2022/01/25 07:32:33;;;;;;;14.90;9.10;;;;;;;;;;4994002;28;20590;-68
2022/01/25 07:34:59;;;;;;;16.48;10.15;;;;;;;;;;4996743;28;20033;-67
2022/01/25 07:37:25;;;;;;;19.08;8.80;;;;;;;;;;4996292;28;20498;-68
2022/01/25 07:39:51;;;;;;;14.43;8.57;;;;;;;;;;5001867;28;20044;-67
2022/01/25 07:42:18;;;;;;;19.42;10.50;;;;;;;;;;4993069;28;20034;-67
2022/01/25 07:44:44;;;;;;;15.95;10.18;;;;;;;;;;4990829;28;20030;-68
2022/01/25 07:47:11;;;;;;;17.27;9.68;;;;;;;;;;4993278;28;20432;-68
2022/01/25 07:49:37;;;;;;;20.35;9.98;;;;;;;;;;5001581;28;20543;-67
2022/01/25 07:52:03;;;;;;;18.77;10.05;;;;;;;;;;4987722;28;20045;-68
2022/01/25 07:54:30;;;;;;;15.25;8.55;;;;;;;;;;4991382;28;20030;-67
2022/01/25 07:56:56;;;;;;;17.10;9.15;;;;;;;;;;4989654;28;20093;-69
2022/01/25 07:59:22;;;;;;;16.98;9.35;;;;;;;;;;4991239;28;20057;-68
2022/01/25 08:01:49;;;;;;;15.85;9.32;;;;;;;;;;4998578;28;20072;-68
2022/01/25 08:04:15;;;;;;;17.48;9.77;;;;;;;;;;4993508;28;20033;-67
2022/01/25 08:06:42;;;;;;;20.98;10.10;;;;;;;;;;4990080;28;20073;-68
2022/01/25 08:09:09;;;;;;;19.63;10.07;;;;;;;;;;4991583;28;20484;-67
2022/01/25 08:11:35;;;;;;;15.80;9.63;;;;;;;;;;4986082;28;20107;-67
2022/01/25 08:14:13;;;;;;;19.25;10.27;;;;;;;;;;4981738;28;20046;-68
2022/01/25 08:16:40;;;;;;;19.92;10.25;;;;;;;;;;4983321;28;20022;-67
2022/01/25 08:19:06;;;;;;;20.75;10.63;;;;;;;;;;4985205;28;20363;-68
2022/01/25 08:21:32;;;;;;;18.10;10.25;;;;;;;;;;4998868;28;20945;-68
2022/01/25 08:23:58;;;;;;;21.25;9.63;;;;;;;;;;4990345;28;20038;-67
2022/01/25 08:26:24;;;;;;;20.00;10.10;;;;;;;;;;4986058;28;20232;-69
2022/01/25 08:28:50;;;;;;;17.75;9.32;;;;;;;;;;5005876;28;20033;-69
2022/01/25 08:31:16;;;;;;;16.77;9.25;;;;;;;;;;4994591;28;20101;-67
2022/01/25 08:33:43;;;;;;;16.45;8.52;;;;;;;;;;5006560;28;20022;-69
2022/01/25 08:36:09;;;;;;;16.88;9.02;;;;;;;;;;5010071;28;20033;-67
2022/01/25 08:38:35;;;;;;;18.35;8.50;;;;;;;;;;4989525;28;20030;-68
2022/01/25 08:41:01;;;;;;;13.77;8.98;;;;;;;;;;4992645;28;20038;-68
2022/01/25 08:43:27;;;;;;;19.65;9.93;;;;;;;;;;5001535;28;20030;-67
2022/01/25 08:45:53;;;;;;;14.93;8.18;;;;;;;;;;4994806;28;20026;-68
2022/01/25 08:48:19;;;;;;;16.55;9.07;;;;;;;;;;4999752;28;20033;-68
2022/01/25 08:50:45;;;;;;;18.10;10.95;;;;;;;;;;5000408;28;20031;-69
2022/01/25 08:53:11;;;;;;;16.50;8.43;;;;;;;;;;5002440;28;20029;-68
2022/01/25 08:55:37;;;;;;;18.83;9.73;;;;;;;;;;4991677;28;20038;-69
2022/01/25 08:58:04;;;;;;;15.75;8.57;;;;;;;;;;4995375;28;20029;-68
2022/01/25 09:00:30;;;;;;;16.50;9.32;;;;;;;;;;4992740;28;20074;-68
2022/01/25 09:02:56;;;;;;;15.77;9.88;;;;;;;;;;5008278;28;20480;-67
2022/01/25 09:05:22;;;;;;;18.38;11.10;;;;;;;;;;4994906;28;20035;-67
2022/01/25 09:07:49;;;;;;;18.08;10.13;;;;;;;;;;4991053;28;20125;-68
2022/01/25 09:10:15;;;;;;;17.95;9.77;;;;;;;;;;5003115;28;20034;-68
2022/01/25 09:12:41;;;;;;;19.15;10.35;;;;;;;;;;5001535;28;20035;-68
2022/01/25 09:15:07;;;;;;;20.25;10.13;;;;;;;;;;4984629;28;20435;-68
2022/01/25 09:17:33;;;;;;;18.10;9.82;;;;;;;;;;4991598;28;20030;-67
2022/01/25 09:20:01;;;;;;;17.45;10.02;;;;;;;;;;4990773;28;20492;-66
2022/01/25 09:22:27;;;;;;;18.08;10.75;;;;;;;;;;4983429;28;20038;-68
2022/01/25 09:24:53;;;;;;;16.98;10.18;;;;;;;;;;4990614;28;20061;-67
2022/01/25 09:27:19;;;;;;;17.75;10.05;;;;;;;;;;4991899;28;20531;-66
2022/01/25 09:29:45;;;;;;;18.00;9.85;;;;;;;;;;4990960;28;20037;-67
2022/01/25 09:32:12;;;;;;;17.05;9.35;;;;;;;;;;4988223;28;20389;-66
2022/01/25 09:34:38;;;;;;;18.17;10.00;;;;;;;;;;4987636;28;20042;-67
2022/01/25 09:37:04;;;;;;;15.20;9.20;;;;;;;;;;4991138;28;20484;-68
2022/01/25 09:39:30;;;;;;;15.57;9.25;;;;;;;;;;4988559;28;20124;-67
2022/01/25 09:41:57;;;;;;;13.60;9.05;;;;;;;;;;4981973;28;20053;-69
2022/01/25 09:44:23;;;;;;;17.75;10.73;;;;;;;;;;4999384;28;20501;-68
2022/01/25 09:46:56;;;;;;;16.23;9.55;;;;;;;;;;4992334;28;20034;-67
2022/01/25 09:49:23;;;;;;;17.90;9.90;;;;;;;;;;4988544;28;20022;-69
2022/01/25 09:51:50;;;;;;;19.88;9.88;;;;;;;;;;4996961;28;20519;-68
2022/01/25 09:54:16;;;;;;;20.67;9.95;;;;;;;;;;4998419;28;20044;-68
2022/01/25 09:56:42;;;;;;;15.82;9.60;;;;;;;;;;4993980;28;20022;-70
2022/01/25 09:59:08;;;;;;;17.50;11.05;;;;;;;;;;5001013;28;20362;-68
2022/01/25 10:01:37;;;;;;;20.75;10.52;;;;;;;;;;4983056;28;20455;-68
2022/01/25 10:04:05;;;;;;;21.17;11.77;;;;;;;;;;4990742;28;20018;-68
2022/01/25 10:06:33;;;;;;;19.38;10.77;;;;;;;;;;4986988;28;20531;-69
2022/01/25 10:08:59;;;;;;;19.73;10.88;;;;;;;;;;4987066;28;20042;-70
2022/01/25 10:11:25;;;;;;;23.73;10.50;;;;;;;;;;4984857;28;20485;-69
2022/01/25 10:13:58;;;;;;;17.92;10.18;;;;;;;;;;5004723;28;20030;-68
2022/01/25 10:16:35;;;;;;;22.35;10.75;;;;;;;;;;4996657;28;20116;-68
2022/01/25 10:19:02;;;;;;;21.27;12.25;;;;;;;;;;5002694;28;20527;-69
2022/01/25 10:21:31;;;;;;;21.98;11.40;;;;;;;;;;5001362;28;20030;-66
2022/01/25 10:24:00;;;;;;;16.83;9.40;;;;;;;;;;4994041;28;20555;-69
2022/01/25 10:26:27;;;;;;;17.45;10.63;;;;;;;;;;4992633;28;20037;-68
2022/01/25 10:28:53;;;;;;;18.98;10.20;;;;;;;;;;4988409;28;20026;-69
2022/01/25 10:31:19;;;;;;;17.33;9.73;;;;;;;;;;4990321;28;20027;-68
2022/01/25 10:33:53;;;;;;;20.65;10.35;;;;;;;;;;5002340;28;20030;-69
2022/01/25 10:36:20;;;;;;;22.83;10.68;;;;;;;;;;5003036;28;20011;-69
2022/01/25 10:38:47;;;;;;;17.58;9.52;;;;;;;;;;4993872;28;20029;-69
2022/01/25 10:41:15;;;;;;;22.33;11.57;;;;;;;;;;4988442;28;20057;-69
2022/01/25 10:43:43;;;;;;;24.17;12.27;;;;;;;;;;4988597;28;20033;-69
2022/01/25 10:46:29;;;;;;;18.70;10.18;;;;;;;;;;4996916;28;20125;-69
2022/01/25 10:48:55;;;;;;;23.25;11.20;;;;;;;;;;4986496;28;20034;-68
2022/01/25 10:51:23;;;;;;;20.42;10.35;;;;;;;;;;5006674;28;20149;-69
2022/01/25 10:54:03;;;;;;;25.58;10.10;;;;;;;;;;4997747;28;20429;-68
2022/01/25 10:56:49;;;;;;;18.67;10.48;;;;;;;;;;4985148;28;20015;-68
2022/01/25 10:59:18;;;;;;;19.95;9.57;;;;;;;;;;5004293;28;20042;-68
2022/01/25 11:01:48;;;;;;;20.55;11.52;;;;;;;;;;5005023;28;20373;-67
2022/01/25 11:04:16;;;;;;;23.17;11.48;;;;;;;;;;4991317;28;20508;-68
2022/01/25 11:06:43;;;;;;;18.27;10.93;;;;;;;;;;4990833;28;20050;-69
2022/01/25 11:09:11;;;;;;;19.95;10.75;;;;;;;;;;4989436;28;20443;-68
2022/01/25 11:11:40;;;;;;;19.00;10.43;;;;;;;;;;5003233;28;20093;-69
2022/01/25 11:16:53;;;;;;;17.52;8.95;;;;;;;;;;4983161;28;20044;-67
2022/01/25 11:19:20;;;;;;;19.50;9.85;;;;;;;;;;4983950;28;20035;-68
2022/01/25 11:21:46;;;;;;;20.00;10.85;;;;;;;;;;4987782;28;20037;-67
2022/01/25 11:24:13;;;;;;;17.95;9.68;;;;;;;;;;4983597;28;20042;-67
2022/01/25 11:26:41;;;;;;;14.75;8.55;;;;;;;;;;4983783;28;21339;-68
2022/01/25 11:29:07;;;;;;;25.17;10.43;;;;;;;;;;4980206;28;20038;-69
2022/01/25 11:31:35;;;;;;;19.10;9.35;;;;;;;;;;4983229;28;20066;-68
2022/01/25 11:34:01;;;;;;;15.00;8.93;;;;;;;;;;4985928;28;20070;-68
2022/01/25 11:36:31;;;;;;;14.77;9.82;;;;;;;;;;4979970;28;20046;-68
2022/01/25 11:38:57;;;;;;;15.27;8.35;;;;;;;;;;4983317;28;20133;-67
2022/01/25 11:41:24;;;;;;;16.42;9.88;;;;;;;;;;4999687;28;20054;-68
2022/01/25 11:44:21;;;;;;;15.23;8.38;;;;;;;;;;4994720;28;20022;-68
2022/01/25 11:46:49;;;;;;;15.77;9.65;;;;;;;;;;4985770;28;20531;-68
2022/01/25 11:49:17;;;;;;;13.82;7.78;;;;;;;;;;5001439;28;20045;-68
2022/01/25 11:51:44;;;;;;;15.88;8.00;;;;;;;;;;4994089;28;20113;-68
2022/01/25 11:54:10;;;;;;;17.08;9.05;;;;;;;;;;4994156;28;20065;-68
2022/01/25 11:56:41;;;;;;;15.80;9.38;;;;;;;;;;4990237;28;20439;-68
2022/01/25 11:59:10;;;;;;;17.52;7.90;;;;;;;;;;4987730;28;20030;-69
2022/01/25 12:01:36;;;;;;;13.07;8.02;;;;;;;;;;5002266;28;20097;-68
2022/01/25 12:04:04;;;;;;;14.27;8.18;;;;;;;;;;4998608;28;20101;-68
2022/01/25 12:06:33;;;;;;;14.55;9.10;;;;;;;;;;4987646;28;20042;-68
2022/01/25 12:09:31;;;;;;;13.57;8.52;;;;;;;;;;4982171;28;20132;-69
2022/01/25 12:12:01;;;;;;;14.70;7.18;;;;;;;;;;4990324;28;20038;-68
2022/01/25 12:14:42;;;;;;;11.23;6.97;;;;;;;;;;4987357;28;20022;-68
2022/01/25 12:17:13;;;;;;;13.93;8.50;;;;;;;;;;4992832;28;20448;-67
2022/01/25 12:19:51;;;;;;;10.38;6.65;;;;;;;;;;4988828;28;20066;-68
2022/01/25 12:22:17;;;;;;;13.52;7.15;;;;;;;;;;4994091;28;20385;-68
2022/01/25 12:24:47;;;;;;;12.30;6.75;;;;;;;;;;4995473;28;20488;-67
2022/01/25 12:29:45;;;;;;;10.80;6.60;;;;;;;;;;4984396;28;20063;-68
2022/01/25 12:32:23;;;;;;;10.02;6.05;;;;;;;;;;4998846;28;20041;-69
2022/01/25 12:35:07;;;;;;;10.93;6.28;;;;;;;;;;4990463;28;20026;-69
2022/01/25 12:37:46;;;;;;;14.80;6.57;;;;;;;;;;4989971;28;20038;-68
2022/01/25 12:40:21;;;;;;;10.82;6.57;;;;;;;;;;5008541;28;20041;-69
2022/01/25 12:42:47;;;;;;;13.13;5.57;;;;;;;;;;4994094;28;20109;-69
2022/01/25 12:45:17;;;;;;;9.43;5.43;;;;;;;;;;4997909;28;20090;-68
2022/01/25 12:47:51;;;;;;;8.02;5.20;;;;;;;;;;4980067;28;20093;-69
2022/01/25 12:50:17;;;;;;;9.30;5.35;;;;;;;;;;4981358;28;20576;-68
2022/01/25 12:52:43;;;;;;;7.32;4.90;;;;;;;;;;5014714;28;20484;-69
2022/01/25 12:55:09;;;;;;;9.25;4.72;;;;;;;;;;4989671;28;20038;-68
2022/01/25 12:57:35;;;;;;;10.43;5.00;;;;;;;;;;4984980;28;20034;-68
2022/01/25 13:00:01;;;;;;;9.38;5.60;;;;;;;;;;4988305;28;20026;-67
2022/01/25 13:02:29;;;;;;;9.13;5.88;;;;;;;;;;4978828;28;20143;-68
2022/01/25 13:04:55;;;;;;;8.93;5.32;;;;;;;;;;4982397;28;20023;-68
2022/01/25 13:07:21;;;;;;;9.75;5.13;;;;;;;;;;4984369;28;20479;-69
2022/01/25 13:09:50;;;;;;;11.05;6.35;;;;;;;;;;4989164;28;20089;-68
2022/01/25 13:12:25;;;;;;;7.95;5.28;;;;;;;;;;4987358;28;20040;-69
2022/01/25 13:15:14;;;;;;;11.00;5.82;;;;;;;;;;4986255;28;20081;-69
2022/01/25 13:17:37;;;;;;;11.65;6.30;;;;;;;;;;4985483;28;21492;-69
2022/01/25 13:20:04;;;;;;;8.93;5.95;;;;;;;;;;4981359;28;20022;-68
2022/01/25 13:22:36;;;;;;;12.93;6.78;;;;;;;;;;4985908;28;20033;-68
2022/01/25 13:27:48;;;;;;;10.32;5.00;;;;;;;;;;4983625;28;20571;-69
2022/01/25 13:33:00;;;;;;;12.20;6.97;;;;;;;;;;4983683;28;20092;-69
2022/01/25 13:35:30;;;;;;;20.10;10.70;;;;;;;;;;4986227;28;20027;-69
2022/01/25 13:38:05;;;;;;;13.00;8.55;;;;;;;;;;5017702;28;21089;-69
2022/01/25 13:40:43;;;;;;;15.00;11.82;;;;;;;;;;4984009;28;20116;-69
2022/01/25 13:45:53;;;;;;;14.75;11.07;;;;;;;;;;4984581;28;20504;-69
2022/01/25 13:48:21;;;;;;;13.48;8.25;;;;;;;;;;4983276;28;20029;-68
2022/01/25 13:50:48;;;;;;;11.82;6.72;;;;;;;;;;4983484;28;20565;-69
2022/01/25 13:53:14;;;;;;;14.00;7.35;;;;;;;;;;4990881;28;20042;-67
2022/01/25 13:55:47;;;;;;;10.45;5.82;;;;;;;;;;4990925;28;20100;-67
2022/01/25 13:58:23;;;;;;;10.80;5.72;;;;;;;;;;5018551;28;20409;-70
2022/01/25 14:00:50;;;;;;;9.13;5.18;;;;;;;;;;4987777;28;20036;-68
2022/01/25 14:03:17;;;;;;;11.27;5.70;;;;;;;;;;5003216;28;20045;-69
2022/01/25 14:05:43;;;;;;;10.05;5.70;;;;;;;;;;4988542;28;20049;-69
2022/01/25 14:08:09;;;;;;;12.63;6.32;;;;;;;;;;4980162;28;20056;-68
2022/01/25 14:10:36;;;;;;;8.77;6.05;;;;;;;;;;4986799;28;20404;-69
2022/01/25 14:24:05;;;;;;;10.32;5.43;;;;;;;;;;4985965;28;20049;-68
2022/01/25 14:26:31;;;;;;;8.18;5.80;;;;;;;;;;4989488;28;20485;-69
2022/01/25 14:29:13;;;;;;;11.20;6.00;;;;;;;;;;4990541;28;20062;-69
2022/01/25 14:31:42;;;;;;;11.93;6.13;;;;;;;;;;4989245;28;20050;-69
2022/01/25 14:34:09;;;;;;;9.05;5.20;;;;;;;;;;4987247;28;20106;-70
2022/01/25 14:36:36;;;;;;;8.45;5.97;;;;;;;;;;4990221;28;20042;-69
2022/01/25 14:39:05;;;;;;;10.52;6.03;;;;;;;;;;4987881;28;20023;-68
2022/01/25 14:41:32;;;;;;;10.95;6.82;;;;;;;;;;4985963;28;20118;-69
2022/01/25 14:44:04;;;;;;;16.85;8.05;;;;;;;;;;4984304;28;20027;-69
2022/01/25 14:46:35;;;;;;;11.18;7.60;;;;;;;;;;4988721;28;20034;-69
2022/01/25 14:49:07;;;;;;;15.15;8.43;;;;;;;;;;4989480;28;20030;-69
2022/01/25 14:51:39;;;;;;;14.65;9.30;;;;;;;;;;4991228;28;20105;-69
2022/01/25 14:54:09;;;;;;;11.88;6.45;;;;;;;;;;4990622;28;20293;-69
2022/01/25 14:56:37;;;;;;;13.88;6.60;;;;;;;;;;4989059;28;20873;-69
2022/01/25 14:59:23;;;;;;;12.00;6.63;;;;;;;;;;4989109;28;20042;-70
2022/01/25 15:01:49;;;;;;;9.18;5.82;;;;;;;;;;4990877;28;20081;-69
2022/01/25 15:04:15;;;;;;;11.02;5.70;;;;;;;;;;5021544;28;20034;-70
2022/01/25 15:06:41;;;;;;;11.77;6.68;;;;;;;;;;4990891;28;20046;-69
2022/01/25 15:09:09;;;;;;;14.75;7.03;;;;;;;;;;4991218;28;20516;-70
2022/01/25 15:11:35;;;;;;;11.27;6.32;;;;;;;;;;4987724;28;20477;-69
2022/01/25 15:14:09;;;;;;;14.25;6.43;;;;;;;;;;4990476;28;20597;-70
2022/01/25 15:16:35;;;;;;;13.98;6.35;;;;;;;;;;4985593;28;20516;-70
2022/01/25 15:19:02;;;;;;;11.73;5.40;;;;;;;;;;4989543;28;20107;-70
2022/01/25 15:21:28;;;;;;;14.60;6.43;;;;;;;;;;4990271;28;20034;-69
2022/01/25 15:23:54;;;;;;;18.92;9.27;;;;;;;;;;4989150;28;20031;-69
2022/01/25 15:26:22;;;;;;;13.68;7.40;;;;;;;;;;4989166;28;20460;-69
2022/01/25 15:28:54;;;;;;;11.60;7.60;;;;;;;;;;4990168;28;20030;-69
2022/01/25 15:31:21;;;;;;;12.23;6.63;;;;;;;;;;4985665;28;20049;-69
2022/01/25 15:33:48;;;;;;;11.45;7.07;;;;;;;;;;4984287;28;20034;-69
2022/01/25 15:36:16;;;;;;;17.27;9.25;;;;;;;;;;4989008;28;20046;-69
2022/01/25 15:38:43;;;;;;;14.93;9.07;;;;;;;;;;4982462;28;20018;-69
2022/01/25 15:41:11;;;;;;;13.38;7.63;;;;;;;;;;4989197;28;20038;-70
2022/01/25 15:43:47;;;;;;;14.15;8.63;;;;;;;;;;4990469;28;20027;-69
2022/01/25 15:46:21;;;;;;;;;;;;;;;;;;4985677;28;20027;-69
2022/01/25 15:48:47;;;;;;;13.23;6.45;;;;;;;;;;4989027;28;19917;-69
2022/01/25 15:51:13;;;;;;;15.10;7.40;;;;;;;;;;4989887;28;20102;-69
2022/01/25 15:53:39;;;;;;;12.73;7.88;;;;;;;;;;4985971;28;20027;-69
2022/01/25 15:56:05;;;;;;;13.30;7.20;;;;;;;;;;4988367;28;20030;-69
2022/01/25 15:58:31;;;;;;;10.98;7.70;;;;;;;;;;4984796;28;20433;-69
2022/01/25 16:00:57;;;;;;;11.45;7.68;;;;;;;;;;4989294;28;20026;-70
2022/01/25 16:03:26;;;;;;;22.92;10.40;;;;;;;;;;4985270;28;20039;-69
2022/01/25 16:05:52;;;;;;;15.48;8.20;;;;;;;;;;4987768;28;20038;-70
2022/01/25 16:08:18;;;;;;;12.50;7.20;;;;;;;;;;4987658;28;20043;-69
2022/01/25 16:10:45;;;;;;;29.38;8.52;;;;;;;;;;4989970;28;20539;-69
2022/01/25 16:13:14;;;;;;;22.35;10.68;;;;;;;;;;4983966;28;20030;-68
2022/01/25 16:15:41;;;;;;;20.00;10.32;;;;;;;;;;4981051;28;20070;-69
2022/01/25 16:18:07;;;;;;;20.08;13.60;;;;;;;;;;4989262;28;20030;-68
2022/01/25 16:20:33;;;;;;;17.95;11.38;;;;;;;;;;4989279;28;20041;-69
2022/01/25 16:23:00;;;;;;;15.60;10.70;;;;;;;;;;4987002;28;20499;-70
2022/01/25 16:25:26;;;;;;;24.92;13.98;;;;;;;;;;4987959;28;20034;-69
2022/01/25 16:27:52;;;;;;;21.20;12.68;;;;;;;;;;4989078;28;20061;-69
2022/01/25 16:30:19;;;;;;;25.45;18.02;;;;;;;;;;4990133;28;20073;-69
2022/01/25 16:32:46;;;;;;;21.77;12.75;;;;;;;;;;4982831;28;20102;-69
2022/01/25 16:35:13;;;;;;;17.33;12.10;;;;;;;;;;4990084;28;20026;-69
2022/01/25 16:37:39;;;;;;;21.10;11.45;;;;;;;;;;4984469;28;20117;-69
2022/01/25 16:40:06;;;;;;;19.63;12.32;;;;;;;;;;4984242;28;20030;-69
2022/01/25 16:42:33;;;;;;;23.20;15.35;;;;;;;;;;4987854;28;20030;-69
2022/01/25 16:45:01;;;;;;;81.93;45.58;;;;;;;;;;4990209;28;20050;-69
2022/01/25 16:47:32;;;;;;;27.85;18.17;;;;;;;;;;4992339;28;20038;-68
2022/01/25 16:49:59;;;;;;;89.75;43.65;;;;;;;;;;4987811;28;20031;-68
2022/01/25 16:52:25;;;;;;;67.63;37.50;;;;;;;;;;4991228;28;20026;-69